Time;durP1;ratioP1;P1;durP2;ratioP2;P2;SDS_P1;SDS_P2;PMS_P1;PMS_P2;Temp;Humidity;BMP_temperature;BMP_pressure;BME280_temperature;BME280_humidity;BME280_pressure;Samples;Min_cycle;Max_cycle;Signal;HPM_P1;HPM_P2
2022/09/20 00:01:12;;;;;;;;;;;14.50;61.40;;;;;;5024438;28;87441;-43
2022/09/20 00:03:42;;;;;;;;;;;14.50;61.40;;;;;;5023949;28;87793;-43
2022/09/20 00:06:08;;;;;;;;;;;14.50;61.40;;;;;;5024331;28;86374;-43
2022/09/20 00:08:34;;;;;;;;;;;14.50;61.40;;;;;;5023848;28;88024;-43
2022/09/20 00:11:20;;;;;;;;;;;14.40;61.50;;;;;;5023823;28;88227;-43
2022/09/20 00:13:46;;;;;;;;;;;14.40;61.50;;;;;;5014974;28;91554;-42
2022/09/20 00:16:17;;;;;;;;;;;14.40;61.40;;;;;;5026391;28;88344;-43
2022/09/20 00:18:42;;;;;;;;;;;14.50;61.40;;;;;;5023544;28;87043;-43
2022/09/20 00:21:14;;;;;;;;;;;14.50;61.40;;;;;;5023973;28;87123;-43
2022/09/20 00:23:40;;;;;;;;;;;14.50;61.40;;;;;;5023735;28;88072;-42
2022/09/20 00:26:05;;;;;;;;;;;14.40;61.40;;;;;;5023961;28;87132;-43
2022/09/20 00:28:33;;;;;;;;;;;14.40;61.40;;;;;;5023558;28;87111;-43
2022/09/20 00:30:59;;;;;;;;;;;14.40;61.40;;;;;;5023930;28;86428;-43
2022/09/20 00:35:06;;;;;;;;;;;14.40;61.20;;;;;;5022627;28;87182;-43
2022/09/20 00:36:13;;;;;;;;;;;14.40;61.40;;;;;;5023409;28;87339;-42
2022/09/20 00:38:38;;;;;;;;;;;14.40;61.50;;;;;;5025508;28;88867;-42
2022/09/20 00:41:04;;;;;;;;;;;14.40;61.30;;;;;;5023784;28;88587;-43
2022/09/20 00:43:40;;;;;;;;;;;14.40;61.20;;;;;;5023235;28;87282;-43
2022/09/20 00:46:13;;;;;;;;;;;14.40;61.20;;;;;;5023326;28;86999;-43
2022/09/20 00:48:38;;;;;;;;;;;14.40;61.40;;;;;;5023743;28;87392;-42
2022/09/20 00:51:10;;;;;;;;;;;14.40;61.40;;;;;;5023280;28;88171;-42
2022/09/20 00:53:38;;;;;;;;;;;14.40;61.50;;;;;;5023574;28;87041;-43
2022/09/20 00:56:12;;;;;;;;;;;14.40;61.10;;;;;;5023988;28;86911;-42
2022/09/20 00:58:44;;;;;;;;;;;14.40;61.20;;;;;;5022794;28;88001;-43
2022/09/20 01:01:10;;;;;;;;;;;14.30;61.20;;;;;;5026001;28;87020;-42
2022/09/20 01:03:37;;;;;;;;;;;14.40;61.20;;;;;;5022315;28;89629;-43
2022/09/20 01:06:05;;;;;;;;;;;14.40;61.10;;;;;;5023115;28;87101;-42
2022/09/20 01:08:30;;;;;;;;;;;14.40;61.20;;;;;;5022885;28;87500;-43
2022/09/20 01:10:56;;;;;;;;;;;14.40;61.10;;;;;;5022690;28;88143;-43
2022/09/20 01:13:21;;;;;;;;;;;14.40;61.10;;;;;;5023034;28;87097;-42
2022/09/20 01:15:48;;;;;;;;;;;14.30;61.10;;;;;;5022989;28;87593;-42
2022/09/20 01:18:14;;;;;;;;;;;14.40;61.80;;;;;;5022832;28;87956;-43
2022/09/20 01:20:41;;;;;;;;;;;14.30;61.20;;;;;;5026284;28;86421;-43
2022/09/20 01:23:07;;;;;;;;;;;14.30;61.10;;;;;;5022524;28;88014;-43
2022/09/20 01:25:47;;;;;;;;;;;14.30;61.20;;;;;;5023120;28;86964;-43
2022/09/20 01:28:13;;;;;;;;;;;14.30;61.10;;;;;;5022184;28;88001;-43
2022/09/20 01:30:47;;;;;;;;;;;14.30;61.10;;;;;;5022744;28;87830;-42
2022/09/20 01:33:27;;;;;;;;;;;14.30;61.00;;;;;;5022896;28;87071;-43
2022/09/20 01:35:53;;;;;;;;;;;14.30;61.00;;;;;;5022852;28;87392;-43
2022/09/20 01:38:34;;;;;;;;;;;14.30;61.00;;;;;;5022379;28;87984;-43
2022/09/20 01:41:02;;;;;;;;;;;14.30;61.00;;;;;;5022596;28;87133;-42
2022/09/20 01:43:36;;;;;;;;;;;14.30;61.00;;;;;;5025349;28;87439;-42
2022/09/20 01:46:14;;;;;;;;;;;14.30;60.90;;;;;;5023152;28;86368;-43
2022/09/20 01:48:41;;;;;;;;;;;14.30;60.90;;;;;;5022607;28;87040;-42
2022/09/20 01:51:15;;;;;;;;;;;14.30;60.90;;;;;;5022530;28;87086;-43
2022/09/20 01:53:46;;;;;;;;;;;14.30;60.90;;;;;;5022078;28;88036;-43
2022/09/20 01:56:30;;;;;;;;;;;14.20;60.90;;;;;;5022668;28;88661;-43
2022/09/20 01:59:19;;;;;;;;;;;14.30;60.90;;;;;;5022132;28;88762;-43
2022/09/20 02:02:04;;;;;;;;;;;14.20;60.90;;;;;;5016677;28;87077;-42
2022/09/20 02:04:45;;;;;;;;;;;14.20;60.90;;;;;;5022694;28;87555;-43
2022/09/20 02:07:22;;;;;;;;;;;14.20;60.90;;;;;;5025156;28;88187;-43
2022/09/20 02:10:06;;;;;;;;;;;14.20;61.00;;;;;;5022395;28;86811;-42
2022/09/20 02:12:38;;;;;;;;;;;14.20;60.90;;;;;;5022493;28;86350;-43
2022/09/20 02:15:12;;;;;;;;;;;14.20;60.90;;;;;;5022268;28;87629;-43
2022/09/20 02:17:44;;;;;;;;;;;14.20;60.80;;;;;;5022267;28;87261;-43
2022/09/20 02:20:29;;;;;;;;;;;14.20;60.80;;;;;;5021440;28;89116;-43
2022/09/20 02:23:03;;;;;;;;;;;14.10;60.80;;;;;;5022436;28;86957;-43
2022/09/20 02:25:29;;;;;;;;;;;14.10;60.80;;;;;;5022327;28;87701;-43
2022/09/20 02:27:54;;;;;;;;;;;14.10;60.90;;;;;;5021702;28;88054;-43
2022/09/20 02:30:26;;;;;;;;;;;14.10;60.90;;;;;;5024984;28;86909;-42
2022/09/20 02:33:05;;;;;;;;;;;14.10;60.90;;;;;;5021739;28;88138;-43
2022/09/20 02:35:41;;;;;;;;;;;14.10;60.90;;;;;;5022005;28;86905;-43
2022/09/20 02:38:12;;;;;;;;;;;14.10;60.80;;;;;;5022606;28;87417;-43
2022/09/20 02:40:47;;;;;;;;;;;14.10;60.80;;;;;;5021611;28;87996;-43
2022/09/20 02:43:18;;;;;;;;;;;14.10;60.90;;;;;;5022011;28;87111;-42
2022/09/20 02:45:53;;;;;;;;;;;14.10;61.10;;;;;;5021368;28;88021;-43
2022/09/20 02:48:22;;;;;;;;;;;14.10;60.90;;;;;;5021807;28;88195;-43
2022/09/20 02:51:03;;;;;;;;;;;14.00;60.90;;;;;;5021619;28;86831;-43
2022/09/20 02:53:36;;;;;;;;;;;14.00;60.90;;;;;;5024523;28;87547;-43
2022/09/20 02:56:07;;;;;;;;;;;14.00;60.90;;;;;;5021967;28;86921;-43
2022/09/20 02:58:33;;;;;;;;;;;14.00;60.80;;;;;;5025578;28;87676;-43
2022/09/20 03:01:04;;;;;;;;;;;14.00;60.80;;;;;;5024945;28;88083;-43
2022/09/20 03:03:38;;;;;;;;;;;14.00;60.90;;;;;;5025768;28;86152;-43
2022/09/20 03:06:29;;;;;;;;;;;13.90;61.00;;;;;;5024916;28;87103;-43
2022/09/20 03:09:13;;;;;;;;;;;14.00;60.90;;;;;;5022601;28;91807;-43
2022/09/20 03:11:57;;;;;;;;;;;13.90;60.90;;;;;;5024556;28;88305;-43
2022/09/20 03:14:27;;;;;;;;;;;13.90;60.90;;;;;;5027684;28;87383;-42
2022/09/20 03:17:04;;;;;;;;;;;13.90;60.90;;;;;;5024747;28;87042;-43
2022/09/20 03:19:45;;;;;;;;;;;13.90;61.00;;;;;;5025052;28;87290;-43
2022/09/20 03:22:25;;;;;;;;;;;13.90;61.00;;;;;;5024536;28;88079;-43
2022/09/20 03:25:11;;;;;;;;;;;13.90;60.80;;;;;;5024741;28;87275;-43
2022/09/20 03:27:50;;;;;;;;;;;13.90;60.90;;;;;;5024931;28;87186;-43
2022/09/20 03:30:40;;;;;;;;;;;13.90;60.80;;;;;;5025204;28;87348;-43
2022/09/20 03:33:05;;;;;;;;;;;13.90;60.90;;;;;;5024605;28;87165;-42
2022/09/20 03:35:57;;;;;;;;;;;13.80;60.80;;;;;;5024636;28;87248;-43
2022/09/20 03:38:51;;;;;;;;;;;13.80;60.90;;;;;;5026824;28;88367;-43
2022/09/20 03:41:36;;;;;;;;;;;13.80;60.90;;;;;;5024792;28;88245;-43
2022/09/20 03:44:16;;;;;;;;;;;13.80;60.80;;;;;;5024093;28;88069;-43
2022/09/20 03:46:41;;;;;;;;;;;13.80;60.80;;;;;;5024440;28;87093;-43
2022/09/20 03:49:27;;;;;;;;;;;13.80;60.80;;;;;;5024630;28;86972;-42
2022/09/20 03:52:16;;;;;;;;;;;13.80;61.00;;;;;;5015794;28;87430;-43
2022/09/20 03:54:47;;;;;;;;;;;13.70;60.90;;;;;;5003892;28;87123;-43
2022/09/20 03:57:26;;;;;;;;;;;13.80;61.00;;;;;;5024912;28;87638;-42
2022/09/20 04:00:10;;;;;;;;;;;13.70;60.80;;;;;;5023960;28;87847;-42
2022/09/20 04:02:39;;;;;;;;;;;13.70;60.90;;;;;;5027047;28;87167;-42
2022/09/20 04:05:25;;;;;;;;;;;13.70;60.90;;;;;;5023220;28;88827;-42
2022/09/20 04:08:06;;;;;;;;;;;13.70;60.80;;;;;;5022466;28;87008;-43
2022/09/20 04:10:50;;;;;;;;;;;13.70;60.90;;;;;;5024143;28;87516;-42
2022/09/20 04:13:35;;;;;;;;;;;13.70;60.80;;;;;;5024064;28;87974;-43
2022/09/20 04:16:22;;;;;;;;;;;13.70;60.80;;;;;;5023867;28;87084;-42
2022/09/20 04:19:10;;;;;;;;;;;13.70;60.90;;;;;;5024526;28;87515;-43
2022/09/20 04:21:39;;;;;;;;;;;13.70;60.80;;;;;;5017560;28;87866;-43
2022/09/20 04:24:05;;;;;;;;;;;13.70;60.80;;;;;;5024439;28;86368;-43
2022/09/20 04:26:33;;;;;;;;;;;13.60;60.80;;;;;;5026618;28;87035;-42
2022/09/20 04:29:08;;;;;;;;;;;13.60;60.80;;;;;;5023246;28;87378;-42
2022/09/20 04:32:00;;;;;;;;;;;13.60;60.80;;;;;;5023196;28;87781;-43
2022/09/20 04:36:27;;;;;;;;;;;13.60;60.80;;;;;;5023547;28;88200;-42
2022/09/20 04:37:23;;;;;;;;;;;13.60;60.80;;;;;;5023476;28;87075;-42
2022/09/20 04:39:55;;;;;;;;;;;13.60;60.90;;;;;;5024082;28;87409;-42
2022/09/20 04:42:27;;;;;;;;;;;13.60;60.80;;;;;;5023431;28;88290;-42
2022/09/20 04:45:04;;;;;;;;;;;13.60;60.80;;;;;;5023455;28;87708;-43
2022/09/20 04:47:38;;;;;;;;;;;13.60;60.70;;;;;;5023429;28;87427;-42
2022/09/20 04:50:09;;;;;;;;;;;13.60;61.00;;;;;;5026548;28;86565;-43
2022/09/20 04:52:54;;;;;;;;;;;13.50;60.80;;;;;;5023119;28;86915;-42
2022/09/20 04:55:28;;;;;;;;;;;13.50;60.90;;;;;;5023351;28;87854;-42
2022/09/20 04:58:05;;;;;;;;;;;13.50;61.00;;;;;;5022709;28;88288;-42
2022/09/20 05:00:57;;;;;;;;;;;13.50;61.00;;;;;;5023371;28;88352;-42
2022/09/20 05:03:43;;;;;;;;;;;13.50;61.10;;;;;;5005968;28;87964;-42
2022/09/20 05:06:20;;;;;;;;;;;13.40;60.90;;;;;;5023434;28;87080;-43
2022/09/20 05:09:04;;;;;;;;;;;13.40;60.90;;;;;;5022993;28;87551;-42
2022/09/20 05:11:45;;;;;;;;;;;13.40;61.00;;;;;;5022605;28;87233;-42
2022/09/20 05:14:30;;;;;;;;;;;13.40;60.90;;;;;;5025899;28;87058;-43
2022/09/20 05:17:05;;;;;;;;;;;13.40;60.90;;;;;;5023167;28;86331;-42
2022/09/20 05:19:42;;;;;;;;;;;13.40;61.00;;;;;;5022685;28;87077;-42
2022/09/20 05:22:17;;;;;;;;;;;13.30;61.00;;;;;;5022862;28;87478;-42
2022/09/20 05:24:42;;;;;;;;;;;13.40;61.00;;;;;;5022162;28;88894;-42
2022/09/20 05:27:28;;;;;;;;;;;13.40;61.00;;;;;;5022942;28;87072;-42
2022/09/20 05:30:12;;;;;;;;;;;13.40;60.90;;;;;;5023005;28;86955;-42
2022/09/20 05:32:37;;;;;;;;;;;13.40;60.90;;;;;;5022604;28;88120;-42
2022/09/20 05:35:12;;;;;;;;;;;13.40;60.90;;;;;;5025667;28;87600;-42
2022/09/20 05:37:56;;;;;;;;;;;13.40;60.90;;;;;;5022296;28;88032;-42
2022/09/20 05:40:22;;;;;;;;;;;13.40;60.80;;;;;;5023010;28;86961;-42
2022/09/20 05:42:54;;;;;;;;;;;13.40;60.80;;;;;;5023170;28;87351;-42
2022/09/20 05:45:24;;;;;;;;;;;13.30;60.70;;;;;;5022569;28;88125;-42
2022/09/20 05:48:09;;;;;;;;;;;13.30;60.70;;;;;;5022754;28;86944;-42
2022/09/20 05:50:50;;;;;;;;;;;13.30;60.80;;;;;;5022271;28;87883;-42
2022/09/20 05:53:22;;;;;;;;;;;13.40;60.80;;;;;;5022225;28;87202;-42
2022/09/20 05:56:00;;;;;;;;;;;13.40;60.80;;;;;;5022471;28;87109;-42
2022/09/20 05:58:44;;;;;;;;;;;13.30;60.70;;;;;;5025260;28;87650;-42
2022/09/20 06:01:22;;;;;;;;;;;13.30;60.70;;;;;;5022523;28;87136;-42
2022/09/20 06:03:54;;;;;;;;;;;13.30;60.90;;;;;;5022441;28;87538;-42
2022/09/20 06:06:36;;;;;;;;;;;13.30;60.80;;;;;;5021844;28;87344;-43
2022/09/20 06:09:01;;;;;;;;;;;13.30;60.90;;;;;;5022759;28;86401;-42
2022/09/20 06:11:30;;;;;;;;;;;13.30;60.90;;;;;;5022613;28;87806;-42
2022/09/20 06:14:18;;;;;;;;;;;13.30;60.80;;;;;;5022197;28;88339;-42
2022/09/20 06:16:50;;;;;;;;;;;13.30;60.80;;;;;;5015744;28;88105;-42
2022/09/20 06:19:27;;;;;;;;;;;13.30;60.90;;;;;;5022418;28;88498;-42
2022/09/20 06:21:54;;;;;;;;;;;13.30;60.80;;;;;;5024951;28;88139;-42
2022/09/20 06:24:42;;;;;;;;;;;13.30;61.00;;;;;;5022151;28;87428;-43
2022/09/20 06:27:11;;;;;;;;;;;13.30;61.00;;;;;;5021747;28;88118;-42
2022/09/20 06:29:39;;;;;;;;;;;13.30;61.00;;;;;;5021959;28;87124;-42
2022/09/20 06:32:05;;;;;;;;;;;13.20;61.10;;;;;;5023714;28;87329;-43
2022/09/20 06:34:30;;;;;;;;;;;13.30;61.10;;;;;;5025859;28;87568;-42
2022/09/20 06:42:59;;;;;;;;;;;13.30;61.00;;;;;;5024584;28;88191;-42
2022/09/20 06:45:25;;;;;;;;;;;13.30;60.90;;;;;;5028422;28;87105;-42
2022/09/20 06:47:50;;;;;;;;;;;13.30;60.90;;;;;;5025069;28;88145;-42
2022/09/20 06:50:16;;;;;;;;;;;13.30;61.00;;;;;;5025408;28;87212;-42
2022/09/20 06:52:43;;;;;;;;;;;13.30;61.00;;;;;;5025306;28;87684;-42
2022/09/20 06:55:12;;;;;;;;;;;13.30;61.00;;;;;;5024953;28;88005;-42
2022/09/20 06:57:38;;;;;;;;;;;13.30;61.00;;;;;;5025200;28;87061;-42
2022/09/20 07:00:05;;;;;;;;;;;13.30;61.00;;;;;;5025427;28;87552;-42
2022/09/20 07:02:30;;;;;;;;;;;13.20;61.10;;;;;;5025026;28;88020;-42
2022/09/20 07:04:57;;;;;;;;;;;13.20;61.20;;;;;;5025326;28;87100;-42
2022/09/20 07:07:24;;;;;;;;;;;13.20;61.20;;;;;;5026968;28;87817;-42
2022/09/20 07:09:50;;;;;;;;;;;13.20;61.30;;;;;;5024720;28;87140;-42
2022/09/20 07:12:16;;;;;;;;;;;13.20;61.40;;;;;;5025112;28;87407;-42
2022/09/20 07:14:41;;;;;;;;;;;13.20;61.40;;;;;;5024294;28;88114;-42
2022/09/20 07:17:07;;;;;;;;;;;13.20;61.40;;;;;;5024815;28;87034;-43
2022/09/20 07:19:33;;;;;;;;;;;13.10;61.50;;;;;;5025030;28;87247;-42
2022/09/20 07:21:58;;;;;;;;;;;13.10;61.60;;;;;;5024649;28;88161;-42
2022/09/20 07:24:24;;;;;;;;;;;13.20;61.60;;;;;;5025329;28;86280;-42
2022/09/20 07:27:00;;;;;;;;;;;13.10;61.60;;;;;;5024890;28;87059;-42
2022/09/20 07:29:26;;;;;;;;;;;13.20;61.60;;;;;;5025653;28;90236;-43
2022/09/20 07:31:52;;;;;;;;;;;13.20;61.60;;;;;;5024145;28;88008;-42
2022/09/20 07:34:19;;;;;;;;;;;13.20;61.70;;;;;;5024447;28;88339;-42
2022/09/20 07:36:47;;;;;;;;;;;13.20;61.50;;;;;;5024710;28;87376;-43
2022/09/20 07:39:13;;;;;;;;;;;13.20;61.60;;;;;;5024563;28;87034;-43
2022/09/20 07:41:38;;;;;;;;;;;13.20;61.60;;;;;;5024376;28;87696;-42
2022/09/20 07:46:48;;;;;;;;;;;13.20;61.60;;;;;;5024786;28;87319;-42
2022/09/20 07:49:14;;;;;;;;;;;13.20;61.70;;;;;;5027700;28;87236;-42
2022/09/20 07:51:39;;;;;;;;;;;13.20;61.70;;;;;;5024632;28;87080;-42
2022/09/20 07:54:05;;;;;;;;;;;13.20;61.80;;;;;;5024107;28;88171;-42
2022/09/20 07:56:30;;;;;;;;;;;13.20;61.70;;;;;;5023790;28;88031;-42
2022/09/20 07:58:56;;;;;;;;;;;13.20;61.70;;;;;;5024275;28;88315;-42
2022/09/20 08:01:22;;;;;;;;;;;13.20;61.60;;;;;;5024066;28;88203;-42
2022/09/20 08:03:47;;;;;;;;;;;13.20;61.70;;;;;;5024505;28;87053;-42
2022/09/20 08:06:15;;;;;;;;;;;13.20;61.80;;;;;;5024353;28;87321;-42
2022/09/20 08:08:41;;;;;;;;;;;13.20;61.60;;;;;;5023557;28;87997;-42
2022/09/20 08:11:08;;;;;;;;;;;13.20;61.80;;;;;;5027049;28;87148;-42
2022/09/20 08:13:37;;;;;;;;;;;13.20;61.80;;;;;;5024338;28;87324;-42
2022/09/20 08:16:03;;;;;;;;;;;13.20;61.80;;;;;;5024190;28;86993;-42
2022/09/20 08:18:29;;;;;;;;;;;13.30;61.80;;;;;;5024224;28;87000;-42
2022/09/20 08:20:54;;;;;;;;;;;13.30;61.60;;;;;;5022961;28;88794;-42
2022/09/20 08:23:20;;;;;;;;;;;13.30;61.60;;;;;;5024140;28;87410;-42
2022/09/20 08:25:47;;;;;;;;;;;13.30;61.60;;;;;;5023668;28;87363;-42
2022/09/20 08:28:12;;;;;;;;;;;13.20;61.90;;;;;;5023465;28;87954;-42
2022/09/20 08:30:38;;;;;;;;;;;13.10;62.20;;;;;;5023874;28;87078;-42
2022/09/20 08:33:03;;;;;;;;;;;13.10;63.10;;;;;;5026727;28;87009;-42
2022/09/20 08:35:29;;;;;;;;;;;13.10;62.50;;;;;;5023930;28;87089;-42
2022/09/20 08:37:54;;;;;;;;;;;13.10;62.50;;;;;;5024309;28;87594;-42
2022/09/20 08:40:22;;;;;;;;;;;13.10;62.40;;;;;;5023291;28;88066;-42
2022/09/20 08:42:48;;;;;;;;;;;13.10;62.30;;;;;;5023655;28;86989;-42
2022/09/20 08:45:21;;;;;;;;;;;13.20;62.40;;;;;;5022988;28;88433;-42
2022/09/20 08:47:54;;;;;;;;;;;13.20;62.20;;;;;;5023096;28;88505;-42
2022/09/20 08:50:19;;;;;;;;;;;13.20;62.20;;;;;;5023544;28;86853;-42
2022/09/20 08:52:47;;;;;;;;;;;13.20;62.10;;;;;;5023627;28;86904;-42
2022/09/20 08:55:17;;;;;;;;;;;13.30;61.90;;;;;;5025053;28;88136;-42
2022/09/20 08:57:43;;;;;;;;;;;13.30;62.00;;;;;;5023575;28;87527;-42
2022/09/20 09:00:16;;;;;;;;;;;13.30;61.90;;;;;;5023008;28;87204;-42
2022/09/20 09:02:42;;;;;;;;;;;13.30;61.90;;;;;;5023966;28;86191;-42
2022/09/20 09:05:26;;;;;;;;;;;13.30;61.90;;;;;;5023387;28;86937;-42
2022/09/20 09:07:52;;;;;;;;;;;13.30;62.00;;;;;;5022435;28;88693;-42
2022/09/20 09:10:17;;;;;;;;;;;13.30;61.90;;;;;;5022494;28;88077;-42
2022/09/20 09:12:45;;;;;;;;;;;13.40;61.90;;;;;;5023277;28;88479;-42
2022/09/20 09:15:21;;;;;;;;;;;13.40;61.70;;;;;;5022660;28;86974;-42
2022/09/20 09:17:47;;;;;;;;;;;13.40;62.30;;;;;;5026251;28;87005;-42
2022/09/20 09:20:12;;;;;;;;;;;13.50;61.60;;;;;;5022629;28;87738;-42
2022/09/20 09:22:42;;;;;;;;;;;13.50;61.60;;;;;;5023222;28;86964;-42
2022/09/20 09:25:15;;;;;;;;;;;13.50;61.70;;;;;;5022905;28;87252;-42
2022/09/20 09:27:59;;;;;;;;;;;13.50;61.60;;;;;;5023166;28;87230;-42
2022/09/20 09:30:32;;;;;;;;;;;13.40;61.60;;;;;;5022760;28;87157;-42
2022/09/20 09:33:17;;;;;;;;;;;13.40;61.90;;;;;;5022623;28;87472;-42
2022/09/20 09:35:44;;;;;;;;;;;13.40;61.80;;;;;;5022009;28;89017;-42
2022/09/20 09:38:17;;;;;;;;;;;13.40;61.80;;;;;;5022939;28;87163;-42
2022/09/20 09:41:09;;;;;;;;;;;13.50;61.80;;;;;;5025453;28;87164;-42
2022/09/20 09:43:36;;;;;;;;;;;13.50;61.80;;;;;;5005730;28;87172;-42
2022/09/20 09:46:17;;;;;;;;;;;13.40;61.90;;;;;;5022737;28;87451;-42
2022/09/20 09:48:48;;;;;;;;;;;13.40;61.90;;;;;;5022272;28;87806;-42
2022/09/20 09:51:15;;;;;;;;;;;13.50;61.90;;;;;;5022916;28;86951;-42
2022/09/20 09:53:40;;;;;;;;;;;13.50;61.80;;;;;;5022951;28;86699;-42
2022/09/20 09:56:24;;;;;;;;;;;13.50;61.70;;;;;;5022305;28;88168;-42
2022/09/20 09:58:55;;;;;;;;;;;13.50;61.70;;;;;;5022525;28;87131;-42
2022/09/20 10:01:43;;;;;;;;;;;13.50;61.70;;;;;;5024308;28;87964;-43
2022/09/20 10:04:16;;;;;;;;;;;13.50;61.70;;;;;;5022158;28;87145;-42
2022/09/20 10:06:50;;;;;;;;;;;13.60;61.80;;;;;;5023378;28;87547;-42
2022/09/20 10:09:22;;;;;;;;;;;13.50;61.60;;;;;;5025460;28;88071;-43
2022/09/20 10:12:08;;;;;;;;;;;13.50;61.80;;;;;;5026229;28;87118;-42
2022/09/20 10:14:42;;;;;;;;;;;13.50;61.80;;;;;;5024835;28;87371;-42
2022/09/20 10:17:18;;;;;;;;;;;13.60;62.30;;;;;;5025522;28;87289;-42
2022/09/20 10:19:43;;;;;;;;;;;13.60;61.70;;;;;;5026461;28;86384;-42
2022/09/20 10:22:12;;;;;;;;;;;13.60;61.60;;;;;;5025972;28;87003;-42
2022/09/20 10:25:02;;;;;;;;;;;13.60;61.50;;;;;;5028570;28;88213;-42
2022/09/20 10:27:30;;;;;;;;;;;13.60;61.60;;;;;;5025173;28;87907;-42
2022/09/20 10:30:13;;;;;;;;;;;13.60;61.60;;;;;;5025086;28;87197;-43
2022/09/20 10:32:58;;;;;;;;;;;13.60;61.60;;;;;;5025940;28;86897;-42
2022/09/20 10:35:24;;;;;;;;;;;13.60;61.70;;;;;;5025613;28;86983;-42
2022/09/20 10:37:52;;;;;;;;;;;13.60;61.60;;;;;;5025231;28;88270;-43
2022/09/20 10:40:17;;;;;;;;;;;13.60;61.50;;;;;;5025576;28;87128;-42
2022/09/20 10:45:32;;;;;;;;;;;13.60;61.50;;;;;;5025734;28;87102;-42
2022/09/20 10:48:03;;;;;;;;;;;13.70;61.40;;;;;;5028140;28;87013;-43
2022/09/20 10:50:35;;;;;;;;;;;13.70;61.50;;;;;;5024909;28;87261;-42
2022/09/20 10:53:00;;;;;;;;;;;13.70;61.30;;;;;;5024789;28;88010;-43
2022/09/20 10:55:36;;;;;;;;;;;13.70;61.20;;;;;;5025409;28;88336;-42
2022/09/20 10:58:19;;;;;;;;;;;13.70;61.20;;;;;;5024822;28;88108;-42
2022/09/20 11:00:47;;;;;;;;;;;13.80;61.30;;;;;;5025125;28;87784;-42
2022/09/20 11:03:31;;;;;;;;;;;13.70;61.20;;;;;;5025279;28;87514;-42
2022/09/20 11:06:16;;;;;;;;;;;13.70;61.30;;;;;;5024692;28;88035;-42
2022/09/20 11:08:42;;;;;;;;;;;13.70;61.20;;;;;;5024633;28;87084;-42
2022/09/20 11:11:11;;;;;;;;;;;13.80;61.20;;;;;;5027996;28;87363;-42
2022/09/20 11:13:42;;;;;;;;;;;13.70;61.30;;;;;;5025131;28;86870;-42
2022/09/20 11:16:11;;;;;;;;;;;13.80;61.30;;;;;;5024840;28;86905;-42
2022/09/20 11:18:40;;;;;;;;;;;13.80;61.40;;;;;;5023618;28;89216;-42
2022/09/20 11:21:24;;;;;;;;;;;13.80;61.30;;;;;;5024842;28;87008;-42
2022/09/20 11:24:04;;;;;;;;;;;13.80;61.20;;;;;;5024787;28;87503;-42
2022/09/20 11:26:38;;;;;;;;;;;13.80;61.10;;;;;;5024472;28;88192;-42
2022/09/20 11:29:23;;;;;;;;;;;13.90;61.10;;;;;;5024593;28;87067;-42
2022/09/20 11:31:49;;;;;;;;;;;13.80;61.10;;;;;;5024845;28;86969;-42
2022/09/20 11:34:19;;;;;;;;;;;13.80;61.10;;;;;;5027491;28;87995;-42
2022/09/20 11:36:51;;;;;;;;;;;13.80;61.00;;;;;;5025016;28;87399;-42
2022/09/20 11:39:36;;;;;;;;;;;13.90;61.00;;;;;;5024697;28;88022;-42
2022/09/20 11:42:04;;;;;;;;;;;13.90;60.90;;;;;;5024024;28;87023;-42
2022/09/20 11:44:30;;;;;;;;;;;13.90;61.00;;;;;;5023975;28;87915;-42
2022/09/20 11:47:04;;;;;;;;;;;13.90;60.90;;;;;;5024046;28;87397;-42
2022/09/20 11:49:33;;;;;;;;;;;13.90;60.80;;;;;;5024407;28;87083;-42
2022/09/20 11:52:10;;;;;;;;;;;13.90;60.80;;;;;;5024721;28;87856;-43
2022/09/20 11:54:41;;;;;;;;;;;13.90;60.80;;;;;;5024218;28;88211;-42
2022/09/20 11:57:11;;;;;;;;;;;14.00;60.80;;;;;;5027233;28;87098;-42
2022/09/20 11:59:41;;;;;;;;;;;14.00;60.80;;;;;;5023891;28;88224;-42
2022/09/20 12:02:18;;;;;;;;;;;14.00;60.70;;;;;;5024877;28;86354;-42
2022/09/20 12:04:48;;;;;;;;;;;14.00;60.80;;;;;;5024766;28;87956;-42
2022/09/20 12:07:19;;;;;;;;;;;14.00;60.70;;;;;;5023578;28;88133;-42
2022/09/20 12:09:50;;;;;;;;;;;14.00;60.70;;;;;;5023358;28;88106;-42
2022/09/20 12:12:34;;;;;;;;;;;14.10;60.80;;;;;;5024269;28;88522;-43
2022/09/20 12:15:01;;;;;;;;;;;14.00;60.80;;;;;;5023843;28;87953;-43
2022/09/20 12:17:45;;;;;;;;;;;14.10;60.70;;;;;;5026788;28;87088;-42
2022/09/20 12:20:29;;;;;;;;;;;14.10;60.80;;;;;;5023692;28;88125;-42
2022/09/20 12:23:15;;;;;;;;;;;14.10;60.70;;;;;;5023957;28;87075;-42
2022/09/20 12:25:59;;;;;;;;;;;14.10;60.70;;;;;;5023773;28;87730;-42
2022/09/20 12:28:35;;;;;;;;;;;14.10;60.70;;;;;;5023843;28;87106;-42
2022/09/20 12:31:19;;;;;;;;;;;14.10;60.60;;;;;;5023284;28;87205;-42
2022/09/20 12:33:56;;;;;;;;;;;14.10;60.70;;;;;;5023947;28;86973;-42
2022/09/20 12:36:23;;;;;;;;;;;14.10;60.60;;;;;;5022654;28;89691;-42
2022/09/20 12:39:09;;;;;;;;;;;14.10;60.70;;;;;;5023647;28;87139;-42
2022/09/20 12:41:44;;;;;;;;;;;14.10;60.70;;;;;;5018569;28;87082;-42
2022/09/20 12:44:22;;;;;;;;;;;14.10;60.70;;;;;;5023746;28;87090;-42
2022/09/20 12:47:05;;;;;;;;;;;14.10;60.70;;;;;;5023554;28;87702;-42
2022/09/20 12:55:26;;;;;;;;;;;14.10;60.70;;;;;;5023976;28;86642;-42
2022/09/20 12:58:01;;;;;;;;;;;14.20;60.70;;;;;;5023195;28;88010;-42
2022/09/20 13:00:33;;;;;;;;;;;14.20;60.70;;;;;;5023705;28;86936;-42
2022/09/20 13:02:59;;;;;;;;;;;14.20;60.70;;;;;;5022885;28;88005;-42
2022/09/20 13:05:32;;;;;;;;;;;14.20;60.60;;;;;;5025798;28;87121;-42
2022/09/20 13:08:01;;;;;;;;;;;14.20;60.60;;;;;;5022838;28;87033;-42
2022/09/20 13:10:33;;;;;;;;;;;14.20;60.60;;;;;;5023040;28;88047;-42
2022/09/20 13:13:01;;;;;;;;;;;14.20;60.60;;;;;;5023177;28;87098;-42
2022/09/20 13:15:27;;;;;;;;;;;14.20;60.50;;;;;;5022998;28;87234;-42
2022/09/20 13:17:54;;;;;;;;;;;14.30;60.50;;;;;;5022883;28;88051;-42
2022/09/20 13:20:22;;;;;;;;;;;14.20;60.50;;;;;;5023765;28;86373;-42
2022/09/20 13:22:48;;;;;;;;;;;14.20;60.40;;;;;;5022934;28;87166;-42
2022/09/20 13:25:15;;;;;;;;;;;14.20;60.40;;;;;;5022645;28;87707;-42
2022/09/20 13:27:49;;;;;;;;;;;14.30;60.40;;;;;;5025255;28;87979;-42
2022/09/20 13:30:15;;;;;;;;;;;14.30;60.40;;;;;;5022388;28;87914;-42
2022/09/20 13:32:41;;;;;;;;;;;14.30;60.50;;;;;;5022977;28;86990;-42
2022/09/20 13:35:20;;;;;;;;;;;14.30;60.40;;;;;;5022810;28;86884;-42
2022/09/20 13:37:51;;;;;;;;;;;14.30;60.30;;;;;;5022558;28;87950;-42
2022/09/20 13:40:26;;;;;;;;;;;14.30;60.40;;;;;;5022505;28;87088;-42
2022/09/20 13:42:52;;;;;;;;;;;14.30;60.40;;;;;;5022760;28;87400;-42
2022/09/20 13:45:19;;;;;;;;;;;14.30;60.30;;;;;;5022765;28;87409;-42
2022/09/20 13:47:49;;;;;;;;;;;14.30;60.20;;;;;;5022625;28;87082;-42
2022/09/20 13:50:19;;;;;;;;;;;14.30;60.30;;;;;;5025136;28;87425;-42
2022/09/20 13:52:46;;;;;;;;;;;14.40;60.40;;;;;;5021805;28;87849;-42
2022/09/20 13:55:19;;;;;;;;;;;14.40;60.40;;;;;;5022486;28;88235;-42
2022/09/20 13:57:46;;;;;;;;;;;14.40;60.50;;;;;;5021786;28;89950;-42
2022/09/20 14:00:13;;;;;;;;;;;14.40;60.50;;;;;;5022343;28;87112;-42
2022/09/20 14:02:40;;;;;;;;;;;14.40;60.50;;;;;;5022488;28;87951;-42
2022/09/20 14:05:06;;;;;;;;;;;14.40;60.50;;;;;;5022018;28;88248;-42
2022/09/20 14:07:32;;;;;;;;;;;14.40;60.50;;;;;;5022460;28;86964;-42
2022/09/20 14:09:58;;;;;;;;;;;14.40;60.30;;;;;;5025130;28;87571;-42
2022/09/20 14:12:25;;;;;;;;;;;14.40;60.30;;;;;;5022333;28;86940;-42
2022/09/20 14:14:51;;;;;;;;;;;14.40;60.30;;;;;;5022391;28;87019;-42
2022/09/20 14:17:18;;;;;;;;;;;14.40;60.30;;;;;;5021212;28;88882;-42
2022/09/20 14:19:45;;;;;;;;;;;14.40;60.30;;;;;;5022467;28;87194;-42
2022/09/20 14:22:16;;;;;;;;;;;14.40;60.30;;;;;;5022249;28;86971;-42
2022/09/20 14:24:55;;;;;;;;;;;14.40;60.30;;;;;;5021624;28;87908;-42
2022/09/20 14:27:21;;;;;;;;;;;14.40;60.30;;;;;;5022129;28;87083;-42
2022/09/20 14:29:47;;;;;;;;;;;14.40;60.30;;;;;;5021831;28;87435;-42
2022/09/20 14:32:16;;;;;;;;;;;14.40;60.30;;;;;;5024805;28;88077;-42
2022/09/20 14:34:54;;;;;;;;;;;14.40;60.30;;;;;;5022670;28;86627;-42
2022/09/20 14:37:35;;;;;;;;;;;14.40;60.40;;;;;;5021513;28;87997;-42
2022/09/20 14:40:13;;;;;;;;;;;14.40;60.30;;;;;;5022006;28;87181;-42
2022/09/20 14:42:41;;;;;;;;;;;14.40;60.40;;;;;;5021504;28;87949;-42
2022/09/20 14:45:07;;;;;;;;;;;14.50;60.40;;;;;;5021537;28;88173;-42
2022/09/20 14:47:37;;;;;;;;;;;14.50;60.50;;;;;;5021949;28;87048;-42
2022/09/20 14:50:20;;;;;;;;;;;14.50;60.40;;;;;;5022007;28;87212;-42
2022/09/20 14:52:46;;;;;;;;;;;14.50;60.30;;;;;;5022437;28;88222;-42
2022/09/20 14:55:11;;;;;;;;;;;14.50;60.30;;;;;;5028251;28;87088;-42
2022/09/20 14:57:37;;;;;;;;;;;14.50;60.30;;;;;;5024907;28;88241;-42
2022/09/20 15:00:14;;;;;;;;;;;14.50;60.40;;;;;;5025782;28;86407;-42
2022/09/20 15:02:43;;;;;;;;;;;14.50;60.40;;;;;;5025491;28;87015;-42
2022/09/20 15:05:20;;;;;;;;;;;14.50;60.20;;;;;;5024555;28;88198;-42